sensor_id;sensor_type;location;lat;lon;timestamp;temperature;humidity
14122;DHT22;7139;48.114;11.442;2023-03-01T00:02:20;2.20;98.30
14122;DHT22;7139;48.114;11.442;2023-03-01T00:04:47;2.20;98.40
14122;DHT22;7139;48.114;11.442;2023-03-01T00:07:14;2.20;98.40
14122;DHT22;7139;48.114;11.442;2023-03-01T00:09:41;2.20;98.40
14122;DHT22;7139;48.114;11.442;2023-03-01T00:12:09;2.20;98.30
14122;DHT22;7139;48.114;11.442;2023-03-01T00:14:36;2.20;98.40
14122;DHT22;7139;48.114;11.442;2023-03-01T00:17:03;2.10;98.40
14122;DHT22;7139;48.114;11.442;2023-03-01T00:19:29;2.10;98.50
14122;DHT22;7139;48.114;11.442;2023-03-01T00:21:57;2.10;98.60
14122;DHT22;7139;48.114;11.442;2023-03-01T00:24:24;2.00;98.60
14122;DHT22;7139;48.114;11.442;2023-03-01T00:26:53;2.00;98.70
14122;DHT22;7139;48.114;11.442;2023-03-01T00:29:22;2.10;98.70
14122;DHT22;7139;48.114;11.442;2023-03-01T00:31:49;2.10;98.70
14122;DHT22;7139;48.114;11.442;2023-03-01T00:34:15;2.10;98.60
14122;DHT22;7139;48.114;11.442;2023-03-01T00:36:42;2.10;98.60
14122;DHT22;7139;48.114;11.442;2023-03-01T00:39:11;2.10;98.60
14122;DHT22;7139;48.114;11.442;2023-03-01T00:41:38;2.10;98.60
14122;DHT22;7139;48.114;11.442;2023-03-01T00:44:06;2.10;98.60
14122;DHT22;7139;48.114;11.442;2023-03-01T00:46:34;2.10;98.60
14122;DHT22;7139;48.114;11.442;2023-03-01T00:49:01;2.10;98.60
14122;DHT22;7139;48.114;11.442;2023-03-01T00:51:30;2.10;98.70
14122;DHT22;7139;48.114;11.442;2023-03-01T00:53:58;2.10;98.70
14122;DHT22;7139;48.114;11.442;2023-03-01T00:56:26;2.10;98.70
14122;DHT22;7139;48.114;11.442;2023-03-01T00:58:53;2.10;98.80
14122;DHT22;7139;48.114;11.442;2023-03-01T01:01:22;2.00;98.70
14122;DHT22;7139;48.114;11.442;2023-03-01T01:03:52;2.10;98.80
14122;DHT22;7139;48.114;11.442;2023-03-01T01:06:22;2.00;98.70
14122;DHT22;7139;48.114;11.442;2023-03-01T01:08:51;2.00;98.80
14122;DHT22;7139;48.114;11.442;2023-03-01T01:11:18;2.00;98.90
14122;DHT22;7139;48.114;11.442;2023-03-01T01:13:46;2.00;98.90
14122;DHT22;7139;48.114;11.442;2023-03-01T01:16:14;2.00;98.90
14122;DHT22;7139;48.114;11.442;2023-03-01T01:18:41;2.00;98.90
14122;DHT22;7139;48.114;11.442;2023-03-01T01:21:11;2.00;99.00
14122;DHT22;7139;48.114;11.442;2023-03-01T01:23:39;2.00;99.00
14122;DHT22;7139;48.114;11.442;2023-03-01T01:26:07;2.00;98.90
14122;DHT22;7139;48.114;11.442;2023-03-01T01:28:34;2.00;98.90
14122;DHT22;7139;48.114;11.442;2023-03-01T01:31:01;2.00;98.70
14122;DHT22;7139;48.114;11.442;2023-03-01T01:33:28;2.00;98.80
14122;DHT22;7139;48.114;11.442;2023-03-01T01:35:55;2.00;98.70
14122;DHT22;7139;48.114;11.442;2023-03-01T01:38:23;2.00;98.80
14122;DHT22;7139;48.114;11.442;2023-03-01T01:40:50;2.00;98.80
14122;DHT22;7139;48.114;11.442;2023-03-01T01:43:22;2.00;98.80
14122;DHT22;7139;48.114;11.442;2023-03-01T01:45:50;2.00;98.90
14122;DHT22;7139;48.114;11.442;2023-03-01T01:48:20;2.00;98.90
14122;DHT22;7139;48.114;11.442;2023-03-01T01:50:53;1.90;98.90
14122;DHT22;7139;48.114;11.442;2023-03-01T01:53:24;1.90;99.00
14122;DHT22;7139;48.114;11.442;2023-03-01T01:55:54;1.90;99.00
14122;DHT22;7139;48.114;11.442;2023-03-01T01:58:24;1.90;98.90
14122;DHT22;7139;48.114;11.442;2023-03-01T02:00:53;1.90;98.90
14122;DHT22;7139;48.114;11.442;2023-03-01T02:03:24;1.80;98.80
14122;DHT22;7139;48.114;11.442;2023-03-01T02:05:57;1.80;98.90
14122;DHT22;7139;48.114;11.442;2023-03-01T02:08:29;1.90;98.90
14122;DHT22;7139;48.114;11.442;2023-03-01T02:10:58;1.90;98.90
14122;DHT22;7139;48.114;11.442;2023-03-01T02:13:26;1.90;98.70
14122;DHT22;7139;48.114;11.442;2023-03-01T02:15:53;1.90;98.80
14122;DHT22;7139;48.114;11.442;2023-03-01T02:18:21;1.80;98.90
14122;DHT22;7139;48.114;11.442;2023-03-01T02:21:03;1.80;99.00
14122;DHT22;7139;48.114;11.442;2023-03-01T02:23:33;1.80;99.00
14122;DHT22;7139;48.114;11.442;2023-03-01T02:26:06;1.80;99.20
14122;DHT22;7139;48.114;11.442;2023-03-01T02:28:36;1.80;99.10
14122;DHT22;7139;48.114;11.442;2023-03-01T02:31:06;1.90;99.10
14122;DHT22;7139;48.114;11.442;2023-03-01T02:33:51;1.90;99.10
14122;DHT22;7139;48.114;11.442;2023-03-01T02:36:21;1.80;99.10
14122;DHT22;7139;48.114;11.442;2023-03-01T02:38:50;1.70;99.20
14122;DHT22;7139;48.114;11.442;2023-03-01T02:41:19;1.80;99.10
14122;DHT22;7139;48.114;11.442;2023-03-01T02:43:48;1.70;99.10
14122;DHT22;7139;48.114;11.442;2023-03-01T02:46:16;1.60;99.30
14122;DHT22;7139;48.114;11.442;2023-03-01T02:48:45;1.60;99.30
14122;DHT22;7139;48.114;11.442;2023-03-01T02:51:33;1.60;99.20
14122;DHT22;7139;48.114;11.442;2023-03-01T02:54:11;1.70;99.30
14122;DHT22;7139;48.114;11.442;2023-03-01T02:56:39;1.70;99.30
14122;DHT22;7139;48.114;11.442;2023-03-01T02:59:08;1.70;99.20
14122;DHT22;7139;48.114;11.442;2023-03-01T03:01:36;1.60;99.20
14122;DHT22;7139;48.114;11.442;2023-03-01T03:04:04;1.70;99.40
14122;DHT22;7139;48.114;11.442;2023-03-01T03:06:32;1.70;99.30
14122;DHT22;7139;48.114;11.442;2023-03-01T03:08:59;1.80;99.20
14122;DHT22;7139;48.114;11.442;2023-03-01T03:11:26;1.80;99.10
14122;DHT22;7139;48.114;11.442;2023-03-01T03:13:53;1.70;99.10
14122;DHT22;7139;48.114;11.442;2023-03-01T03:16:21;1.70;99.30
14122;DHT22;7139;48.114;11.442;2023-03-01T03:18:48;1.60;99.10
14122;DHT22;7139;48.114;11.442;2023-03-01T03:21:15;1.60;99.00
14122;DHT22;7139;48.114;11.442;2023-03-01T03:23:42;1.60;99.10
14122;DHT22;7139;48.114;11.442;2023-03-01T03:26:09;1.70;99.10
14122;DHT22;7139;48.114;11.442;2023-03-01T03:28:40;1.60;99.10
14122;DHT22;7139;48.114;11.442;2023-03-01T03:31:08;1.70;99.10
14122;DHT22;7139;48.114;11.442;2023-03-01T03:33:36;1.70;99.10
14122;DHT22;7139;48.114;11.442;2023-03-01T03:36:03;1.70;99.10
14122;DHT22;7139;48.114;11.442;2023-03-01T03:38:30;1.70;98.80
14122;DHT22;7139;48.114;11.442;2023-03-01T03:41:02;1.70;98.80
14122;DHT22;7139;48.114;11.442;2023-03-01T03:43:32;1.70;98.80
14122;DHT22;7139;48.114;11.442;2023-03-01T03:45:59;1.60;98.80
14122;DHT22;7139;48.114;11.442;2023-03-01T03:48:26;1.60;98.70
14122;DHT22;7139;48.114;11.442;2023-03-01T03:50:56;1.40;98.80
14122;DHT22;7139;48.114;11.442;2023-03-01T03:53:24;1.40;99.00
14122;DHT22;7139;48.114;11.442;2023-03-01T03:55:52;1.50;99.10
14122;DHT22;7139;48.114;11.442;2023-03-01T03:58:20;1.50;98.90
14122;DHT22;7139;48.114;11.442;2023-03-01T04:00:49;1.50;98.90
14122;DHT22;7139;48.114;11.442;2023-03-01T04:03:19;1.50;98.80
14122;DHT22;7139;48.114;11.442;2023-03-01T04:05:46;1.40;98.80
14122;DHT22;7139;48.114;11.442;2023-03-01T04:08:14;1.40;98.90
14122;DHT22;7139;48.114;11.442;2023-03-01T04:10:44;1.40;98.90
14122;DHT22;7139;48.114;11.442;2023-03-01T04:13:13;1.40;98.90
14122;DHT22;7139;48.114;11.442;2023-03-01T04:15:40;1.30;99.00
14122;DHT22;7139;48.114;11.442;2023-03-01T04:18:09;1.40;98.90
14122;DHT22;7139;48.114;11.442;2023-03-01T04:20:37;1.40;98.90
14122;DHT22;7139;48.114;11.442;2023-03-01T04:23:07;1.50;98.90
14122;DHT22;7139;48.114;11.442;2023-03-01T04:25:46;1.50;98.80
14122;DHT22;7139;48.114;11.442;2023-03-01T04:28:19;1.50;98.80
14122;DHT22;7139;48.114;11.442;2023-03-01T04:30:45;1.50;98.70
14122;DHT22;7139;48.114;11.442;2023-03-01T04:33:12;1.40;98.70
14122;DHT22;7139;48.114;11.442;2023-03-01T04:35:39;1.40;98.80
14122;DHT22;7139;48.114;11.442;2023-03-01T04:38:07;1.40;98.80
14122;DHT22;7139;48.114;11.442;2023-03-01T04:40:34;1.40;98.80
14122;DHT22;7139;48.114;11.442;2023-03-01T04:43:03;1.30;98.90
14122;DHT22;7139;48.114;11.442;2023-03-01T04:45:32;1.30;98.90
14122;DHT22;7139;48.114;11.442;2023-03-01T04:48:00;1.40;98.90
14122;DHT22;7139;48.114;11.442;2023-03-01T04:50:27;1.40;98.90
14122;DHT22;7139;48.114;11.442;2023-03-01T04:52:54;1.40;98.80
14122;DHT22;7139;48.114;11.442;2023-03-01T04:55:24;1.40;98.80
14122;DHT22;7139;48.114;11.442;2023-03-01T04:57:51;1.40;98.70
14122;DHT22;7139;48.114;11.442;2023-03-01T05:00:20;1.40;98.70
14122;DHT22;7139;48.114;11.442;2023-03-01T05:02:48;1.40;98.60
14122;DHT22;7139;48.114;11.442;2023-03-01T05:05:19;1.40;98.50
14122;DHT22;7139;48.114;11.442;2023-03-01T05:07:46;1.30;98.60
14122;DHT22;7139;48.114;11.442;2023-03-01T05:10:13;1.30;98.70
14122;DHT22;7139;48.114;11.442;2023-03-01T05:12:39;1.30;99.10
14122;DHT22;7139;48.114;11.442;2023-03-01T05:15:07;1.40;98.90
14122;DHT22;7139;48.114;11.442;2023-03-01T05:17:35;1.40;98.90
14122;DHT22;7139;48.114;11.442;2023-03-01T05:20:02;1.40;98.80
14122;DHT22;7139;48.114;11.442;2023-03-01T05:22:33;1.40;98.80
14122;DHT22;7139;48.114;11.442;2023-03-01T05:25:00;1.40;98.80
14122;DHT22;7139;48.114;11.442;2023-03-01T05:27:27;1.40;98.80
14122;DHT22;7139;48.114;11.442;2023-03-01T05:29:55;1.30;98.80
14122;DHT22;7139;48.114;11.442;2023-03-01T05:32:21;1.30;98.90
14122;DHT22;7139;48.114;11.442;2023-03-01T05:34:49;1.30;98.90
14122;DHT22;7139;48.114;11.442;2023-03-01T05:37:17;1.20;98.90
14122;DHT22;7139;48.114;11.442;2023-03-01T05:39:44;1.30;99.00
14122;DHT22;7139;48.114;11.442;2023-03-01T05:42:11;1.30;99.00
14122;DHT22;7139;48.114;11.442;2023-03-01T05:44:38;1.30;99.10
14122;DHT22;7139;48.114;11.442;2023-03-01T05:47:05;1.30;99.00
14122;DHT22;7139;48.114;11.442;2023-03-01T05:49:32;1.20;98.90
14122;DHT22;7139;48.114;11.442;2023-03-01T05:52:01;1.20;99.00
14122;DHT22;7139;48.114;11.442;2023-03-01T05:54:28;1.10;99.00
14122;DHT22;7139;48.114;11.442;2023-03-01T05:56:54;1.10;99.00
14122;DHT22;7139;48.114;11.442;2023-03-01T05:59:21;1.10;99.10
14122;DHT22;7139;48.114;11.442;2023-03-01T06:01:48;1.10;99.10
14122;DHT22;7139;48.114;11.442;2023-03-01T06:04:15;1.00;99.10
14122;DHT22;7139;48.114;11.442;2023-03-01T06:06:42;1.00;99.10
14122;DHT22;7139;48.114;11.442;2023-03-01T06:09:10;1.00;99.00
14122;DHT22;7139;48.114;11.442;2023-03-01T06:11:37;1.00;98.90
14122;DHT22;7139;48.114;11.442;2023-03-01T06:14:05;0.90;99.10
14122;DHT22;7139;48.114;11.442;2023-03-01T06:16:33;0.90;99.00
14122;DHT22;7139;48.114;11.442;2023-03-01T06:19:00;0.90;99.10
14122;DHT22;7139;48.114;11.442;2023-03-01T06:21:26;0.90;99.10
14122;DHT22;7139;48.114;11.442;2023-03-01T06:23:53;0.90;99.00
14122;DHT22;7139;48.114;11.442;2023-03-01T06:26:21;0.90;99.00
14122;DHT22;7139;48.114;11.442;2023-03-01T06:28:48;0.90;99.10
14122;DHT22;7139;48.114;11.442;2023-03-01T06:31:15;0.90;99.10
14122;DHT22;7139;48.114;11.442;2023-03-01T06:33:41;0.80;99.00
14122;DHT22;7139;48.114;11.442;2023-03-01T06:36:10;0.70;99.30
14122;DHT22;7139;48.114;11.442;2023-03-01T06:38:37;0.80;99.40
14122;DHT22;7139;48.114;11.442;2023-03-01T06:41:06;0.80;99.30
14122;DHT22;7139;48.114;11.442;2023-03-01T06:43:34;0.80;99.40
14122;DHT22;7139;48.114;11.442;2023-03-01T06:46:04;0.90;99.20
14122;DHT22;7139;48.114;11.442;2023-03-01T06:48:32;0.90;99.20
14122;DHT22;7139;48.114;11.442;2023-03-01T06:50:58;1.00;99.30
14122;DHT22;7139;48.114;11.442;2023-03-01T06:53:26;1.00;99.20
14122;DHT22;7139;48.114;11.442;2023-03-01T06:55:54;1.00;99.20
14122;DHT22;7139;48.114;11.442;2023-03-01T06:58:21;1.00;99.20
14122;DHT22;7139;48.114;11.442;2023-03-01T07:00:49;1.00;99.10
14122;DHT22;7139;48.114;11.442;2023-03-01T07:03:16;1.00;99.10
14122;DHT22;7139;48.114;11.442;2023-03-01T07:05:42;1.10;99.10
14122;DHT22;7139;48.114;11.442;2023-03-01T07:08:09;1.00;99.00
14122;DHT22;7139;48.114;11.442;2023-03-01T07:10:36;1.10;99.10
14122;DHT22;7139;48.114;11.442;2023-03-01T07:13:03;1.10;99.20
14122;DHT22;7139;48.114;11.442;2023-03-01T07:15:32;1.10;99.10
14122;DHT22;7139;48.114;11.442;2023-03-01T07:18:00;1.00;99.00
14122;DHT22;7139;48.114;11.442;2023-03-01T07:20:27;1.00;99.10
14122;DHT22;7139;48.114;11.442;2023-03-01T07:22:54;1.00;99.10
14122;DHT22;7139;48.114;11.442;2023-03-01T07:25:21;1.00;99.20
14122;DHT22;7139;48.114;11.442;2023-03-01T07:27:52;1.10;99.10
14122;DHT22;7139;48.114;11.442;2023-03-01T07:30:19;0.90;99.20
14122;DHT22;7139;48.114;11.442;2023-03-01T07:32:46;1.00;99.20
14122;DHT22;7139;48.114;11.442;2023-03-01T07:35:14;1.00;99.10
14122;DHT22;7139;48.114;11.442;2023-03-01T07:37:41;1.00;99.00
14122;DHT22;7139;48.114;11.442;2023-03-01T07:40:09;1.00;99.00
14122;DHT22;7139;48.114;11.442;2023-03-01T07:42:36;1.00;99.20
14122;DHT22;7139;48.114;11.442;2023-03-01T07:45:03;1.10;99.10
14122;DHT22;7139;48.114;11.442;2023-03-01T07:47:30;1.10;99.10
14122;DHT22;7139;48.114;11.442;2023-03-01T07:49:58;1.10;99.20
14122;DHT22;7139;48.114;11.442;2023-03-01T07:52:26;1.20;99.10
14122;DHT22;7139;48.114;11.442;2023-03-01T07:54:53;1.20;99.10
14122;DHT22;7139;48.114;11.442;2023-03-01T07:57:19;1.30;99.00
14122;DHT22;7139;48.114;11.442;2023-03-01T07:59:46;1.30;98.90
14122;DHT22;7139;48.114;11.442;2023-03-01T08:02:13;1.40;99.20
14122;DHT22;7139;48.114;11.442;2023-03-01T08:04:40;1.40;99.10
14122;DHT22;7139;48.114;11.442;2023-03-01T08:07:07;1.50;98.90
14122;DHT22;7139;48.114;11.442;2023-03-01T08:09:35;1.50;98.80
14122;DHT22;7139;48.114;11.442;2023-03-01T08:12:03;1.50;98.80
14122;DHT22;7139;48.114;11.442;2023-03-01T08:14:30;1.50;98.80
14122;DHT22;7139;48.114;11.442;2023-03-01T08:16:57;1.60;98.80
14122;DHT22;7139;48.114;11.442;2023-03-01T08:19:24;1.50;98.70
14122;DHT22;7139;48.114;11.442;2023-03-01T08:21:50;1.60;98.80
14122;DHT22;7139;48.114;11.442;2023-03-01T08:24:17;1.60;98.70
14122;DHT22;7139;48.114;11.442;2023-03-01T08:26:45;1.60;98.80
14122;DHT22;7139;48.114;11.442;2023-03-01T08:29:12;1.60;98.90
14122;DHT22;7139;48.114;11.442;2023-03-01T08:31:39;1.70;98.80
14122;DHT22;7139;48.114;11.442;2023-03-01T08:34:09;1.70;98.80
14122;DHT22;7139;48.114;11.442;2023-03-01T08:36:38;1.90;98.80
14122;DHT22;7139;48.114;11.442;2023-03-01T08:39:06;1.90;98.60
14122;DHT22;7139;48.114;11.442;2023-03-01T08:41:33;1.90;98.30
14122;DHT22;7139;48.114;11.442;2023-03-01T08:44:01;1.90;98.10
14122;DHT22;7139;48.114;11.442;2023-03-01T08:46:30;1.90;98.20
14122;DHT22;7139;48.114;11.442;2023-03-01T08:48:57;1.90;98.20
14122;DHT22;7139;48.114;11.442;2023-03-01T08:51:24;2.00;98.10
14122;DHT22;7139;48.114;11.442;2023-03-01T08:53:51;2.00;98.00
14122;DHT22;7139;48.114;11.442;2023-03-01T08:56:19;2.00;98.00
14122;DHT22;7139;48.114;11.442;2023-03-01T08:58:46;2.10;98.00
14122;DHT22;7139;48.114;11.442;2023-03-01T09:01:16;2.10;98.00
14122;DHT22;7139;48.114;11.442;2023-03-01T09:03:43;2.10;97.90
14122;DHT22;7139;48.114;11.442;2023-03-01T09:06:10;2.20;97.90
14122;DHT22;7139;48.114;11.442;2023-03-01T09:08:39;2.20;97.90
14122;DHT22;7139;48.114;11.442;2023-03-01T09:11:08;2.30;97.80
14122;DHT22;7139;48.114;11.442;2023-03-01T09:13:35;2.30;97.70
14122;DHT22;7139;48.114;11.442;2023-03-01T09:16:04;2.30;97.70
14122;DHT22;7139;48.114;11.442;2023-03-01T09:18:34;2.30;97.70
14122;DHT22;7139;48.114;11.442;2023-03-01T09:21:01;2.30;97.60
14122;DHT22;7139;48.114;11.442;2023-03-01T09:23:33;2.30;97.60
14122;DHT22;7139;48.114;11.442;2023-03-01T09:25:59;2.30;97.70
14122;DHT22;7139;48.114;11.442;2023-03-01T09:28:27;2.30;97.70
14122;DHT22;7139;48.114;11.442;2023-03-01T09:30:57;2.30;97.50
14122;DHT22;7139;48.114;11.442;2023-03-01T09:33:24;2.40;97.50
14122;DHT22;7139;48.114;11.442;2023-03-01T09:35:57;2.40;97.50
14122;DHT22;7139;48.114;11.442;2023-03-01T09:38:24;2.40;97.70
14122;DHT22;7139;48.114;11.442;2023-03-01T09:40:50;2.50;97.70
14122;DHT22;7139;48.114;11.442;2023-03-01T09:43:23;2.60;97.60
14122;DHT22;7139;48.114;11.442;2023-03-01T09:45:54;2.60;97.30
14122;DHT22;7139;48.114;11.442;2023-03-01T09:48:24;2.50;97.10
14122;DHT22;7139;48.114;11.442;2023-03-01T09:50:52;2.40;97.30
14122;DHT22;7139;48.114;11.442;2023-03-01T09:53:22;2.40;97.40
14122;DHT22;7139;48.114;11.442;2023-03-01T09:55:54;2.50;97.40
14122;DHT22;7139;48.114;11.442;2023-03-01T10:01:27;2.80;97.20
14122;DHT22;7139;48.114;11.442;2023-03-01T10:04:28;2.80;96.80
14122;DHT22;7139;48.114;11.442;2023-03-01T10:07:13;2.80;96.80
14122;DHT22;7139;48.114;11.442;2023-03-01T10:09:45;2.70;96.80
14122;DHT22;7139;48.114;11.442;2023-03-01T10:12:16;2.70;96.90
14122;DHT22;7139;48.114;11.442;2023-03-01T10:14:51;2.80;96.90
14122;DHT22;7139;48.114;11.442;2023-03-01T10:17:34;2.80;96.80
14122;DHT22;7139;48.114;11.442;2023-03-01T10:20:22;2.80;96.70
14122;DHT22;7139;48.114;11.442;2023-03-01T10:22:51;2.80;97.00
14122;DHT22;7139;48.114;11.442;2023-03-01T10:25:42;2.90;97.00
14122;DHT22;7139;48.114;11.442;2023-03-01T10:28:17;2.90;97.00
14122;DHT22;7139;48.114;11.442;2023-03-01T10:30:44;2.80;96.80
14122;DHT22;7139;48.114;11.442;2023-03-01T10:33:17;2.90;97.00
14122;DHT22;7139;48.114;11.442;2023-03-01T10:35:50;2.90;97.00
14122;DHT22;7139;48.114;11.442;2023-03-01T10:38:50;2.90;97.00
14122;DHT22;7139;48.114;11.442;2023-03-01T10:41:31;3.00;96.80
14122;DHT22;7139;48.114;11.442;2023-03-01T10:44:03;2.90;96.70
14122;DHT22;7139;48.114;11.442;2023-03-01T10:46:32;2.90;96.80
14122;DHT22;7139;48.114;11.442;2023-03-01T10:49:12;3.00;97.00
14122;DHT22;7139;48.114;11.442;2023-03-01T10:51:40;3.00;96.90
14122;DHT22;7139;48.114;11.442;2023-03-01T10:54:17;3.00;96.90
14122;DHT22;7139;48.114;11.442;2023-03-01T10:56:50;3.00;97.00
14122;DHT22;7139;48.114;11.442;2023-03-01T10:59:26;3.10;96.70
14122;DHT22;7139;48.114;11.442;2023-03-01T11:02:13;3.10;96.60
14122;DHT22;7139;48.114;11.442;2023-03-01T11:04:57;3.20;96.50
14122;DHT22;7139;48.114;11.442;2023-03-01T11:07:24;3.40;96.80
14122;DHT22;7139;48.114;11.442;2023-03-01T11:10:11;3.40;96.50
14122;DHT22;7139;48.114;11.442;2023-03-01T11:12:40;3.60;96.40
14122;DHT22;7139;48.114;11.442;2023-03-01T11:15:20;3.80;96.60
14122;DHT22;7139;48.114;11.442;2023-03-01T11:24:17;3.90;95.30
14122;DHT22;7139;48.114;11.442;2023-03-01T11:26:47;3.90;95.30
14122;DHT22;7139;48.114;11.442;2023-03-01T11:29:26;4.00;95.10
14122;DHT22;7139;48.114;11.442;2023-03-01T11:31:56;4.20;95.40
14122;DHT22;7139;48.114;11.442;2023-03-01T11:34:35;4.40;95.60
14122;DHT22;7139;48.114;11.442;2023-03-01T11:37:21;4.70;94.90
14122;DHT22;7139;48.114;11.442;2023-03-01T11:39:55;4.80;94.50
14122;DHT22;7139;48.114;11.442;2023-03-01T11:42:30;5.00;94.20
14122;DHT22;7139;48.114;11.442;2023-03-01T11:45:09;5.10;94.20
14122;DHT22;7139;48.114;11.442;2023-03-01T11:47:51;5.40;94.20
14122;DHT22;7139;48.114;11.442;2023-03-01T11:50:28;5.90;94.20
14122;DHT22;7139;48.114;11.442;2023-03-01T11:53:06;6.20;93.30
14122;DHT22;7139;48.114;11.442;2023-03-01T11:55:45;6.30;93.30
14122;DHT22;7139;48.114;11.442;2023-03-01T11:58:33;6.50;92.70
14122;DHT22;7139;48.114;11.442;2023-03-01T12:01:16;6.70;91.60
14122;DHT22;7139;48.114;11.442;2023-03-01T12:03:57;6.80;91.70
14122;DHT22;7139;48.114;11.442;2023-03-01T12:06:37;7.20;92.00
14122;DHT22;7139;48.114;11.442;2023-03-01T12:09:22;7.10;90.90
14122;DHT22;7139;48.114;11.442;2023-03-01T12:12:06;7.00;91.30
14122;DHT22;7139;48.114;11.442;2023-03-01T12:14:52;7.20;91.50
14122;DHT22;7139;48.114;11.442;2023-03-01T12:17:43;7.40;91.40
14122;DHT22;7139;48.114;11.442;2023-03-01T12:20:24;7.60;90.70
14122;DHT22;7139;48.114;11.442;2023-03-01T12:25:48;7.80;90.00
14122;DHT22;7139;48.114;11.442;2023-03-01T12:28:38;7.60;90.10
14122;DHT22;7139;48.114;11.442;2023-03-01T12:31:36;7.50;90.10
14122;DHT22;7139;48.114;11.442;2023-03-01T12:34:21;7.70;90.70
14122;DHT22;7139;48.114;11.442;2023-03-01T12:37:03;8.00;90.40
14122;DHT22;7139;48.114;11.442;2023-03-01T12:39:44;8.00;88.80
14122;DHT22;7139;48.114;11.442;2023-03-01T12:42:24;7.80;89.40
14122;DHT22;7139;48.114;11.442;2023-03-01T12:45:25;7.90;90.10
14122;DHT22;7139;48.114;11.442;2023-03-01T12:48:20;8.20;89.70
14122;DHT22;7139;48.114;11.442;2023-03-01T12:50:52;8.20;88.20
14122;DHT22;7139;48.114;11.442;2023-03-01T12:53:23;8.10;89.80
14122;DHT22;7139;48.114;11.442;2023-03-01T12:55:52;8.20;89.10
14122;DHT22;7139;48.114;11.442;2023-03-01T12:58:25;8.30;89.10
14122;DHT22;7139;48.114;11.442;2023-03-01T13:01:03;8.40;89.80
14122;DHT22;7139;48.114;11.442;2023-03-01T13:03:38;8.50;89.20
14122;DHT22;7139;48.114;11.442;2023-03-01T13:06:17;8.60;88.10
14122;DHT22;7139;48.114;11.442;2023-03-01T13:08:52;8.30;88.60
14122;DHT22;7139;48.114;11.442;2023-03-01T13:11:23;8.10;88.70
14122;DHT22;7139;48.114;11.442;2023-03-01T13:13:50;8.20;89.90
14122;DHT22;7139;48.114;11.442;2023-03-01T13:16:22;8.20;89.50
14122;DHT22;7139;48.114;11.442;2023-03-01T13:19:12;8.20;88.60
14122;DHT22;7139;48.114;11.442;2023-03-01T13:21:42;8.30;89.20
14122;DHT22;7139;48.114;11.442;2023-03-01T13:24:35;8.40;90.10
14122;DHT22;7139;48.114;11.442;2023-03-01T13:27:18;8.30;89.50
14122;DHT22;7139;48.114;11.442;2023-03-01T13:29:51;8.30;90.00
14122;DHT22;7139;48.114;11.442;2023-03-01T13:32:21;8.40;89.20
14122;DHT22;7139;48.114;11.442;2023-03-01T13:34:53;8.20;87.80
14122;DHT22;7139;48.114;11.442;2023-03-01T13:37:29;8.10;88.40
14122;DHT22;7139;48.114;11.442;2023-03-01T13:39:58;8.00;89.00
14122;DHT22;7139;48.114;11.442;2023-03-01T13:42:39;7.90;89.80
14122;DHT22;7139;48.114;11.442;2023-03-01T13:45:17;7.80;90.40
14122;DHT22;7139;48.114;11.442;2023-03-01T13:47:46;7.80;90.50
14122;DHT22;7139;48.114;11.442;2023-03-01T13:50:20;7.80;90.80
14122;DHT22;7139;48.114;11.442;2023-03-01T13:52:53;7.90;90.00
14122;DHT22;7139;48.114;11.442;2023-03-01T13:55:26;7.70;89.50
14122;DHT22;7139;48.114;11.442;2023-03-01T13:57:56;7.60;90.30
14122;DHT22;7139;48.114;11.442;2023-03-01T14:00:29;7.60;90.60
14122;DHT22;7139;48.114;11.442;2023-03-01T14:03:17;7.60;90.50
14122;DHT22;7139;48.114;11.442;2023-03-01T14:05:58;7.70;90.50
14122;DHT22;7139;48.114;11.442;2023-03-01T14:08:29;7.60;90.80
14122;DHT22;7139;48.114;11.442;2023-03-01T14:14:23;7.50;90.40
14122;DHT22;7139;48.114;11.442;2023-03-01T14:17:01;7.40;91.20
14122;DHT22;7139;48.114;11.442;2023-03-01T14:19:30;7.40;91.20
14122;DHT22;7139;48.114;11.442;2023-03-01T14:22:10;7.40;91.00
14122;DHT22;7139;48.114;11.442;2023-03-01T14:24:46;7.40;91.10
14122;DHT22;7139;48.114;11.442;2023-03-01T14:27:14;7.40;91.20
14122;DHT22;7139;48.114;11.442;2023-03-01T14:29:41;7.40;91.10
14122;DHT22;7139;48.114;11.442;2023-03-01T14:32:10;7.30;91.10
14122;DHT22;7139;48.114;11.442;2023-03-01T14:34:43;7.30;91.30
14122;DHT22;7139;48.114;11.442;2023-03-01T14:37:11;7.30;91.00
14122;DHT22;7139;48.114;11.442;2023-03-01T14:39:38;7.30;91.60
14122;DHT22;7139;48.114;11.442;2023-03-01T14:42:06;7.20;92.00
14122;DHT22;7139;48.114;11.442;2023-03-01T14:44:32;7.20;91.90
14122;DHT22;7139;48.114;11.442;2023-03-01T14:47:03;7.20;91.70
14122;DHT22;7139;48.114;11.442;2023-03-01T14:49:31;7.20;91.90
14122;DHT22;7139;48.114;11.442;2023-03-01T14:52:00;7.20;91.60
14122;DHT22;7139;48.114;11.442;2023-03-01T14:54:39;7.20;91.50
14122;DHT22;7139;48.114;11.442;2023-03-01T14:57:15;7.20;91.90
14122;DHT22;7139;48.114;11.442;2023-03-01T14:59:42;7.30;92.00
14122;DHT22;7139;48.114;11.442;2023-03-01T15:02:14;7.30;92.60
14122;DHT22;7139;48.114;11.442;2023-03-01T15:04:43;7.30;92.10
14122;DHT22;7139;48.114;11.442;2023-03-01T15:07:12;7.30;91.90
14122;DHT22;7139;48.114;11.442;2023-03-01T15:09:40;7.30;91.60
14122;DHT22;7139;48.114;11.442;2023-03-01T15:12:35;7.30;91.70
14122;DHT22;7139;48.114;11.442;2023-03-01T15:18:05;7.50;92.00
14122;DHT22;7139;48.114;11.442;2023-03-01T15:20:33;7.40;92.40
14122;DHT22;7139;48.114;11.442;2023-03-01T15:23:02;7.20;92.10
14122;DHT22;7139;48.114;11.442;2023-03-01T15:25:31;7.10;92.40
14122;DHT22;7139;48.114;11.442;2023-03-01T15:28:01;7.20;92.90
14122;DHT22;7139;48.114;11.442;2023-03-01T15:30:31;7.20;92.60
14122;DHT22;7139;48.114;11.442;2023-03-01T15:33:18;7.20;92.50
14122;DHT22;7139;48.114;11.442;2023-03-01T15:35:48;7.20;92.80
14122;DHT22;7139;48.114;11.442;2023-03-01T15:38:27;7.20;92.60
14122;DHT22;7139;48.114;11.442;2023-03-01T15:40:55;7.30;92.60
14122;DHT22;7139;48.114;11.442;2023-03-01T15:43:44;7.30;92.50
14122;DHT22;7139;48.114;11.442;2023-03-01T15:46:18;7.40;92.70
14122;DHT22;7139;48.114;11.442;2023-03-01T15:48:46;7.40;93.00
14122;DHT22;7139;48.114;11.442;2023-03-01T15:51:14;7.50;92.70
14122;DHT22;7139;48.114;11.442;2023-03-01T15:53:42;7.50;92.70
14122;DHT22;7139;48.114;11.442;2023-03-01T15:56:10;7.50;92.40
14122;DHT22;7139;48.114;11.442;2023-03-01T15:58:36;7.40;92.10
14122;DHT22;7139;48.114;11.442;2023-03-01T16:01:10;7.40;92.40
14122;DHT22;7139;48.114;11.442;2023-03-01T16:03:38;7.40;92.40
14122;DHT22;7139;48.114;11.442;2023-03-01T16:06:05;7.40;92.60
14122;DHT22;7139;48.114;11.442;2023-03-01T16:08:32;7.40;92.30
14122;DHT22;7139;48.114;11.442;2023-03-01T16:10:58;7.30;92.50
14122;DHT22;7139;48.114;11.442;2023-03-01T16:13:28;7.30;92.70
14122;DHT22;7139;48.114;11.442;2023-03-01T16:15:56;7.20;92.80
14122;DHT22;7139;48.114;11.442;2023-03-01T16:18:25;7.20;92.80
14122;DHT22;7139;48.114;11.442;2023-03-01T16:20:52;7.20;92.90
14122;DHT22;7139;48.114;11.442;2023-03-01T16:23:19;7.20;93.40
14122;DHT22;7139;48.114;11.442;2023-03-01T16:25:46;7.10;93.60
14122;DHT22;7139;48.114;11.442;2023-03-01T16:28:13;7.00;94.00